Terminal Aerodrome Forecast
Issued by NWS

Home | Current Version | Previous Version | Text Only | Print | Product List | Glossary On
Versions: 1 2 3 4 5 6 7 8 9 10 11 12 13 14
596
FTUS44 KCRP 232327
TAFLRD
TAF
KLRD 232327Z 2400/2424 13012KT P6SM SCT040
     FM240700 13008KT P6SM FEW025
     FM241100 12007KT P6SM SCT012
     FM241500 14011KT P6SM BKN025 BKN035
     FM241700 13012KT P6SM BKN050
      AMD NOT SKED=

USA.gov is the U.S. government's official web portal to all federal, state and local government web resources and services.